Record high temperature 35.2°C Record low temperature -28.5°C Record high gust 73.6 km/h Record high average 52.2 km/h Record daily rain 78.0 mm Record low windchill -39.6°C Record high barometer 1045.2 hPa Record low barometer 973.0 hPa
Daily high pressure 1010 hPa Daily low pressure 1010 hPa Daily low windchill 20.0°C Daily high heat index 20.0°C Daily high gust speed 0.0 kmh WSW Daily high average speed 0.0 kmh WSW
Beaconsfield Home Weather Data WMR-968
LAST READING AT TIME: 00:15 DATE: July 01 2017, time of next update: 00:20
Current WeatherNight time/Dry/mostly clear Current Temperature 20.0°C (68.0°F) (Heat Index 20.0°C ), Apparent temp 21.4°C
Maximum Temperature (since midnight)20.0°C at: 00:00 Minimum Temperature (since midnight)20.0°C at: 00:00
Average windspeed (ten minute)0.0 kmh (0.0 kts) Wind Direction (ten minute)ENE (68°)
Windchill Temperature 20.0°C Maximum Gust (last hour)0.0 kmh (0.0 kts) at: 00:00
Maximum Gust (since midnight)0.0 kmh (0.0 kts) at: 13:42 Maximum 1 minute average (since midnight)0.0 kmh (0.0 kts) at: 18:38
Rainfall (last hour)0.0 mm Rainfall (since midnight)0.0 mm (0.00 in.)---
Rainfall This month 0.0 mm (0.00 in.) Rainfall To date this year 414.2 mm (16.31 in.)
Maximum rain per minute (last hour)0.0 mm/min Maximum rain per hour (last 6 hours)0.0 mm/hour
Yesterdays rainfall 0.0 mm DewPoint 14.4°C (Wet Bulb :16.7°C )
Humidity 70 %, Humidex 23.6°C Barometer corrected to msl1010 hPa
Pressure change 0 hPa (last hour) Trend (last hour)STEADY
Pressure change (last 12 hours)-1 hPa Pressure change (last 6 hours)+0 hPa
Current Indoor Temp. 24.4°C
Current Indoor Hum. 41%
Current Solar 0 W/mē
Maximum solar (since midnight) 0 W/mē Minimum solar (since midnight)1000 W/mē
Current 00:00 hours of sunshine today, current sky: Night time/Dry/mostly clear
Sunshine hours for the year: 06:46 hrs Sunshine hours for the month: 05:42 hrs
Current evapotranspiration rate 1.2 mm per day. Yesterday's reading 1.6




Weather report/warning/Metars

Montreal / Pierre Elliot Trudeau International Airport, Que, Canada (CYUL) 45-28N 073-45W 36M
Jun 30, 2017 - 11:00 PM EDT / 2017.07.01 0300 UTC
Wind: from the SSE (150 degrees) at 3 MPH (3 KT):0
Visibility: 15 mile(s):0
Sky conditions: mostly clear
Temperature: 68 F (20 C)
Dew Point: 66 F (19 C)
Relative Humidity: 93%
Pressure (altimeter): 29.85 in. Hg (1010 hPa)
ob: CYUL 010300Z 15003KT 15SM FEW060 FEW080 FEW240 20/19 A2985 RMK SC1AC1CI1 SC TR AC TR CI TR SLP109 DENSITY ALT 900FT
cycle: 3
Sherbrooke, Que., Canada (CYSC) 45-24N 071-53W
Jun 30, 2017 - 11:53 PM EDT / 2017.07.01 0353 UTC
Wind: Variable at 2 MPH (2 KT):0
Visibility: 6 mile(s):0
Sky conditions: overcast
Weather: light rain; mist
Temperature: 66 F (19 C)
Dew Point: 66 F (19 C)
Relative Humidity: 100%
Pressure (altimeter): 29.89 in. Hg (1012 hPa)
ob: CYSC 010353Z AUTO VRB02KT 6SM -RA BR FEW024 BKN031 OVC040 19/19 A2989 RMK SLP125 DENSITY ALT 1400FT
cycle: 4
St Jovite Automatic Weather Reporting System , Canada (CWJT) 46-04N 074-32W
Jun 30, 2017 - 11:00 PM EDT / 2017.07.01 0300 UTC
Wind: Calm:0
Temperature: 65.1 F (18.4 C)
Dew Point: 65.1 F (18.4 C)
Relative Humidity: 100%
Pressure tendency: 0.03 inches (1.0 hPa) higher than three hours ago
ob: CWJT 010300Z AUTO 00000KT 18/18 RMK AO1 2011 SLP108 T01840184 50010
cycle: 3
Ste Anne De Bell 1, Canada (CWVQ) 45-26N 073-56W
Jun 30, 2017 - 11:00 PM EDT / 2017.07.01 0300 UTC
Wind: from the SSE (150 degrees) at 2 MPH (2 KT):0
Temperature: 67.5 F (19.7 C)
Dew Point: 67.5 F (19.7 C)
Relative Humidity: 100%
Pressure tendency: 0.01 inches (0.3 hPa) higher than three hours ago
ob: CWVQ 010300Z AUTO 15002KT 20/20 RMK AO1 SLP107 T01970197 50003
cycle: 3
Montreal / Mirabel, Canada (CYMX) 45-41N 074-02W
Jun 30, 2017 - 11:00 PM EDT / 2017.07.01 0300 UTC
Wind: Calm:0
Visibility: 10 mile(s):0
Sky conditions: overcast
Temperature: 68 F (20 C)
Dew Point: 68 F (20 C)
Relative Humidity: 100%
Pressure (altimeter): 29.86 in. Hg (1011 hPa)
ob: CYMX 010300Z 00000KT 10SM FEW012 BKN021 OVC032 20/20 A2986 RMK SC1SC6SC1 SLP113 DENSITY ALT 1000FT
cycle: 3
L'Acadie, Canada (CWIZ) 45-18N 073-21W
Jun 30, 2017 - 11:00 PM EDT / 2017.07.01 0300 UTC
Temperature: 30 F (-1 C)
Pressure (altimeter): 31.3 in. Hg (1059 hPa)
Pressure tendency: 0.27 inches (9.3 hPa) higher than three hours ago
ob: CWIZ 010300Z AUTO M01/ A3130 RMK AO1 T1013 50093
cycle: 3
St Anicet, Canada (CWBZ) 45-07N 074-17W 49M
Jun 30, 2017 - 11:00 PM EDT / 2017.07.01 0300 UTC
Wind: Calm:0
Temperature: 66.2 F (19.0 C)
Dew Point: 65.7 F (18.7 C)
Relative Humidity: 98%
Pressure tendency: 0.01 inches (0.4 hPa) higher than three hours ago
ob: CWBZ 010300Z AUTO 00000KT 19/19 RMK AO1 SLP105 T01900187 51004
cycle: 3
Mount Washington, NH, United States (KMWN) 44-16N 071-18W 1910M
Jun 30, 2017 - 11:49 PM EDT / 2017.07.01 0349 UTC
Wind: from the WSW (250 degrees) at 31 MPH (27 KT):0
Visibility: less than 1 mile:0
Sky conditions: obscured
Weather: light rain showers; fog
Temperature: 53 F (12 C)
Dew Point: 53 F (12 C)
Relative Humidity: 100%
ob: KMWN 010349Z 25027KT 0SM -SHRA FG VV000 12/12 RMK 
cycle: 4
Vancouver International Air-Port, B. C., Canada (CYVR) 49-11N 123-10W 2M
Jun 30, 2017 - 11:00 PM EDT / 2017.07.01 0300 UTC
Wind: Variable at 2 MPH (2 KT):0
Visibility: 30 mile(s):0
Sky conditions: mostly cloudy
Temperature: 71 F (22 C)
Dew Point: 59 F (15 C)
Relative Humidity: 64%
Pressure (altimeter): 29.92 in. Hg (1013 hPa)
ob: CYVR 010300Z VRB02KT 30SM FEW180 BKN230 22/15 A2992 RMK AS1CI4 SLP132 DENSITY ALT 900FT
cycle: 3



The data is logged at two minute intervals, but there is data recorded every minute.

Use the RELOAD facility on your browser to retrieve the latest data.

Click here for a daily update of the averages/extremes to date for the month

Click here for Real Time Weather



Created by "Weather Display" software version 10.37S at this start time/date 22:22:51 2017-06-16